createdAt,value
2018-08-13T00:01:48.444Z,1006.46
2018-08-13T00:02:48.384Z,1006.46
2018-08-13T00:04:41.169Z,1006.45
2018-08-13T00:05:41.096Z,1006.45
2018-08-13T00:07:33.878Z,1006.41
2018-08-13T00:08:33.802Z,1006.42
2018-08-13T00:10:26.600Z,1006.43
2018-08-13T00:11:26.548Z,1006.42
2018-08-13T00:13:19.337Z,1006.39
2018-08-13T00:14:19.271Z,1006.36
2018-08-13T00:16:12.019Z,1006.30
2018-08-13T00:17:11.962Z,1006.32
2018-08-13T00:19:04.840Z,1006.33
2018-08-13T00:20:04.670Z,1006.33
2018-08-13T00:21:57.459Z,1006.27
2018-08-13T00:22:57.400Z,1006.27
2018-08-13T00:24:50.194Z,1006.31
2018-08-13T00:25:50.116Z,1006.29
2018-08-13T00:27:42.919Z,1006.24
2018-08-13T00:28:42.819Z,1006.24
2018-08-13T00:30:35.609Z,1006.26
2018-08-13T00:31:35.543Z,1006.25
2018-08-13T00:33:28.343Z,1006.23
2018-08-13T00:34:28.258Z,1006.21
2018-08-13T00:36:21.023Z,1006.27
2018-08-13T00:37:20.996Z,1006.22
2018-08-13T00:39:13.767Z,1006.20
2018-08-13T00:40:13.677Z,1006.17
2018-08-13T00:42:06.458Z,1006.20
2018-08-13T00:43:06.392Z,1006.17
2018-08-13T00:44:59.188Z,1006.15
2018-08-13T00:45:59.159Z,1006.16
2018-08-13T00:47:51.895Z,1006.15
2018-08-13T00:48:51.842Z,1006.14
2018-08-13T00:50:44.648Z,1006.10
2018-08-13T00:51:44.550Z,1006.09
2018-08-13T00:53:37.353Z,1006.09
2018-08-13T00:54:37.282Z,1006.07
2018-08-13T00:56:30.091Z,1006.07
2018-08-13T00:57:30.041Z,1006.09
2018-08-13T00:59:22.830Z,1006.05
2018-08-13T01:00:22.749Z,1005.99
2018-08-13T01:02:15.527Z,1006.02
2018-08-13T01:03:15.466Z,1006.02
2018-08-13T01:05:08.261Z,1006.01
2018-08-13T01:06:08.185Z,1006.03
2018-08-13T01:08:00.980Z,1006.01
2018-08-13T01:09:00.885Z,1005.99
2018-08-13T01:10:53.678Z,1006.04
2018-08-13T01:11:53.617Z,1006.06
2018-08-13T01:13:46.438Z,1006.04
2018-08-13T01:14:46.361Z,1006.02
2018-08-13T01:16:39.125Z,1006.00
2018-08-13T01:17:39.063Z,1005.98
2018-08-13T01:19:31.853Z,1005.97
2018-08-13T01:20:31.786Z,1005.94
2018-08-13T01:22:24.559Z,1005.94
2018-08-13T01:23:24.490Z,1005.90
2018-08-13T01:25:17.304Z,1005.92
2018-08-13T01:26:17.218Z,1005.90
2018-08-13T01:28:09.987Z,1005.86
2018-08-13T01:29:09.919Z,1005.84
2018-08-13T01:31:02.728Z,1005.80
2018-08-13T01:32:02.662Z,1005.81
2018-08-13T01:33:55.477Z,1005.79
2018-08-13T01:34:55.395Z,1005.77
2018-08-13T01:36:48.150Z,1005.79
2018-08-13T01:37:48.094Z,1005.77
2018-08-13T01:39:40.876Z,1005.76
2018-08-13T01:40:40.797Z,1005.71
2018-08-13T01:42:33.612Z,1005.67
2018-08-13T01:43:33.544Z,1005.68
2018-08-13T01:45:26.334Z,1005.72
2018-08-13T01:46:26.260Z,1005.67
2018-08-13T01:48:19.046Z,1005.67
2018-08-13T01:49:18.967Z,1005.66
2018-08-13T01:51:11.763Z,1005.67
2018-08-13T01:52:11.683Z,1005.64
2018-08-13T01:54:04.466Z,1005.64
2018-08-13T01:55:04.401Z,1005.61
2018-08-13T01:56:57.174Z,1005.60
2018-08-13T01:57:57.117Z,1005.57
2018-08-13T01:59:49.901Z,1005.53
2018-08-13T02:00:49.815Z,1005.55
2018-08-13T02:02:42.588Z,1005.53
2018-08-13T02:03:42.524Z,1005.51
2018-08-13T02:05:35.311Z,1005.49
2018-08-13T02:06:35.241Z,1005.51
2018-08-13T02:08:28.010Z,1005.49
2018-08-13T02:09:27.932Z,1005.48
2018-08-13T02:11:20.732Z,1005.45
2018-08-13T02:12:20.654Z,1005.47
2018-08-13T02:14:13.447Z,1005.42
2018-08-13T02:15:13.363Z,1005.39
2018-08-13T02:17:06.137Z,1005.39
2018-08-13T02:18:06.082Z,1005.39
2018-08-13T02:19:58.848Z,1005.38
2018-08-13T02:20:58.773Z,1005.35
2018-08-13T02:22:51.540Z,1005.35
2018-08-13T02:23:51.472Z,1005.34
2018-08-13T02:25:44.256Z,1005.37
2018-08-13T02:26:44.182Z,1005.32
2018-08-13T02:28:36.969Z,1005.36
2018-08-13T02:29:36.909Z,1005.30
2018-08-13T02:31:29.695Z,1005.26
2018-08-13T02:32:29.618Z,1005.26
2018-08-13T02:34:22.399Z,1005.23
2018-08-13T02:35:22.334Z,1005.23
2018-08-13T02:37:15.095Z,1005.21
2018-08-13T02:38:15.042Z,1005.24
2018-08-13T02:40:07.901Z,1005.18
2018-08-13T02:41:07.810Z,1005.26
2018-08-13T02:43:00.586Z,1005.24
2018-08-13T02:44:00.511Z,1005.22
2018-08-13T02:45:53.306Z,1005.24
2018-08-13T02:46:53.226Z,1005.25
2018-08-13T02:48:46.013Z,1005.21
2018-08-13T02:49:45.952Z,1005.20
2018-08-13T02:51:38.756Z,1005.18
2018-08-13T02:52:38.673Z,1005.17
2018-08-13T02:54:31.479Z,1005.22
2018-08-13T02:55:31.401Z,1005.21
2018-08-13T02:57:24.184Z,1005.19
2018-08-13T02:58:24.117Z,1005.16
2018-08-13T03:00:16.899Z,1005.14
2018-08-13T03:01:16.822Z,1005.10
2018-08-13T03:03:09.605Z,1005.11
2018-08-13T03:04:09.539Z,1005.04
2018-08-13T03:06:02.326Z,1005.04
2018-08-13T03:07:02.255Z,1005.05
2018-08-13T03:08:55.027Z,1005.08
2018-08-13T03:09:54.956Z,1005.06
2018-08-13T03:11:47.750Z,1005.01
2018-08-13T03:12:47.676Z,1005.02
2018-08-13T03:14:40.478Z,1005.04
2018-08-13T03:15:40.379Z,1005.03
2018-08-13T03:17:33.159Z,1005.00
2018-08-13T03:18:33.084Z,1005.00
2018-08-13T03:20:25.918Z,1004.99
2018-08-13T03:21:25.795Z,1004.98
2018-08-13T03:23:18.577Z,1004.98
2018-08-13T03:24:18.513Z,1004.93
2018-08-13T03:26:11.323Z,1004.96
2018-08-13T03:27:11.228Z,1004.97
2018-08-13T03:29:04.014Z,1004.91
2018-08-13T03:30:03.949Z,1004.91
2018-08-13T03:31:56.749Z,1004.85
2018-08-13T03:32:56.654Z,1004.87
2018-08-13T03:34:49.443Z,1004.82
2018-08-13T03:35:49.364Z,1004.79
2018-08-13T03:37:42.150Z,1004.72
2018-08-13T03:38:42.094Z,1004.71
2018-08-13T03:40:34.866Z,1004.71
2018-08-13T03:41:34.786Z,1004.70
2018-08-13T03:43:27.565Z,1004.67
2018-08-13T03:44:27.501Z,1004.63
2018-08-13T03:46:20.275Z,1004.64
2018-08-13T03:47:20.193Z,1004.62
2018-08-13T03:49:12.963Z,1004.61
2018-08-13T03:50:12.974Z,1004.57
2018-08-13T03:52:05.676Z,1004.56
2018-08-13T03:53:05.600Z,1004.54
2018-08-13T03:54:58.384Z,1004.57
2018-08-13T03:55:58.311Z,1004.57
2018-08-13T03:57:51.087Z,1004.53
2018-08-13T03:58:51.020Z,1004.59
2018-08-13T04:00:43.786Z,1004.56
2018-08-13T04:01:43.726Z,1004.51
2018-08-13T04:03:36.486Z,1004.52
2018-08-13T04:04:36.422Z,1004.53
2018-08-13T04:06:29.230Z,1004.52
2018-08-13T04:07:29.137Z,1004.55
2018-08-13T04:09:21.913Z,1004.51
2018-08-13T04:10:21.855Z,1004.54
2018-08-13T04:12:14.712Z,1004.48
2018-08-13T04:13:14.585Z,1004.50
2018-08-13T04:15:07.369Z,1004.52
2018-08-13T04:16:07.296Z,1004.49
2018-08-13T04:18:00.089Z,1004.56
2018-08-13T04:19:00.045Z,1004.54
2018-08-13T04:20:52.846Z,1004.56
2018-08-13T04:21:52.740Z,1004.55
2018-08-13T04:23:45.516Z,1004.57
2018-08-13T04:24:45.457Z,1004.57
2018-08-13T04:26:38.239Z,1004.63
2018-08-13T04:27:38.175Z,1004.60
2018-08-13T04:29:30.957Z,1004.62
2018-08-13T04:30:30.887Z,1004.61
2018-08-13T04:32:23.693Z,1004.57
2018-08-13T04:33:23.604Z,1004.56
2018-08-13T04:35:16.415Z,1004.57
2018-08-13T04:36:16.312Z,1004.53
2018-08-13T04:38:09.120Z,1004.61
2018-08-13T04:39:09.058Z,1004.58
2018-08-13T04:41:01.868Z,1004.58
2018-08-13T04:42:01.776Z,1004.53
2018-08-13T04:43:54.582Z,1004.55
2018-08-13T04:44:54.500Z,1004.56
2018-08-13T04:46:47.289Z,1004.58
2018-08-13T04:47:47.233Z,1004.58
2018-08-13T04:49:40.043Z,1004.60
2018-08-13T04:50:39.946Z,1004.57
2018-08-13T04:52:32.721Z,1004.57
2018-08-13T04:53:32.646Z,1004.57
2018-08-13T04:55:25.436Z,1004.53
2018-08-13T04:56:25.367Z,1004.52
2018-08-13T04:58:18.162Z,1004.55
2018-08-13T04:59:18.086Z,1004.57
2018-08-13T05:01:10.871Z,1004.58
2018-08-13T05:02:10.795Z,1004.58
2018-08-13T05:04:03.585Z,1004.62
2018-08-13T05:05:03.531Z,1004.63
2018-08-13T05:06:56.297Z,1004.62
2018-08-13T05:07:56.225Z,1004.67
2018-08-13T05:09:49.020Z,1004.63
2018-08-13T05:10:48.952Z,1004.63
2018-08-13T05:12:41.729Z,1004.65
2018-08-13T05:13:41.652Z,1004.63
2018-08-13T05:15:34.431Z,1004.64
2018-08-13T05:16:34.362Z,1004.67
2018-08-13T05:18:27.198Z,1004.68
2018-08-13T05:19:27.104Z,1004.72
2018-08-13T05:21:19.996Z,1004.71
2018-08-13T05:22:19.804Z,1004.68
2018-08-13T05:24:12.601Z,1004.66
2018-08-13T05:25:12.529Z,1004.69
2018-08-13T05:27:05.308Z,1004.71
2018-08-13T05:28:05.219Z,1004.71
2018-08-13T05:29:58.066Z,1004.73
2018-08-13T05:30:57.998Z,1004.75
2018-08-13T05:32:50.717Z,1004.77
2018-08-13T05:33:50.642Z,1004.81
2018-08-13T05:35:43.475Z,1004.76
2018-08-13T05:36:43.410Z,1004.81
2018-08-13T05:38:36.193Z,1004.74
2018-08-13T05:39:36.108Z,1004.76
2018-08-13T05:41:28.886Z,1004.76
2018-08-13T05:42:28.808Z,1004.82
2018-08-13T05:44:21.629Z,1004.85
2018-08-13T05:45:21.558Z,1004.84
2018-08-13T05:47:14.659Z,1004.81
2018-08-13T05:48:14.423Z,1004.85
2018-08-13T05:50:07.190Z,1004.85
2018-08-13T05:51:07.106Z,1004.92
2018-08-13T05:52:59.924Z,1004.93
2018-08-13T05:53:59.821Z,1004.95
2018-08-13T05:55:52.626Z,1004.96
2018-08-13T05:56:52.544Z,1005.02
2018-08-13T05:58:45.319Z,1004.94
2018-08-13T05:59:45.278Z,1004.99
2018-08-13T06:01:38.181Z,1004.94
2018-08-13T06:02:38.106Z,1004.96
2018-08-13T06:04:30.878Z,1004.96
2018-08-13T06:05:30.813Z,1005.01
2018-08-13T06:07:23.616Z,1004.99
2018-08-13T06:08:23.534Z,1004.90
2018-08-13T06:10:16.346Z,1004.89
2018-08-13T06:11:16.339Z,1004.89
2018-08-13T06:13:09.067Z,1004.96
2018-08-13T06:14:08.993Z,1004.94
2018-08-13T06:16:01.859Z,1004.86
2018-08-13T06:17:01.796Z,1004.95
2018-08-13T06:18:54.667Z,1004.92
2018-08-13T06:19:54.593Z,1004.87
2018-08-13T06:21:47.406Z,1004.87
2018-08-13T06:22:47.338Z,1004.95
2018-08-13T06:24:40.136Z,1004.85
2018-08-13T06:25:40.086Z,1004.85
2018-08-13T06:27:32.894Z,1004.83
2018-08-13T06:28:32.823Z,1004.85
2018-08-13T06:30:25.618Z,1004.88
2018-08-13T06:31:25.556Z,1004.95
2018-08-13T06:33:18.380Z,1004.90
2018-08-13T06:34:18.324Z,1004.96
2018-08-13T06:36:11.110Z,1004.95
2018-08-13T06:37:11.071Z,1004.95
2018-08-13T06:39:03.938Z,1004.93
2018-08-13T06:40:03.862Z,1005.01
2018-08-13T06:41:56.673Z,1005.00
2018-08-13T06:42:56.610Z,1005.07
2018-08-13T06:44:49.402Z,1005.12
2018-08-13T06:45:49.347Z,1005.05
2018-08-13T06:47:42.157Z,1005.08
2018-08-13T06:48:42.093Z,1005.25
2018-08-13T06:50:34.911Z,1005.39
2018-08-13T06:51:34.840Z,1005.57
2018-08-13T06:53:27.640Z,1005.56
2018-08-13T06:54:27.574Z,1005.84
2018-08-13T06:56:20.473Z,1005.46
2018-08-13T06:57:20.361Z,1005.21
2018-08-13T06:59:13.352Z,1005.04
2018-08-13T07:00:13.268Z,1004.95
2018-08-13T07:02:06.100Z,1004.92
2018-08-13T07:03:06.025Z,1004.88
2018-08-13T07:04:58.821Z,1004.92
2018-08-13T07:05:58.808Z,1004.92
2018-08-13T07:07:51.593Z,1004.88
2018-08-13T07:08:51.530Z,1004.96
2018-08-13T07:10:44.335Z,1005.01
2018-08-13T07:11:44.286Z,1005.05
2018-08-13T07:13:37.119Z,1004.94
2018-08-13T07:14:37.055Z,1004.91
2018-08-13T07:16:29.842Z,1005.00
2018-08-13T07:17:29.797Z,1004.96
2018-08-13T07:19:22.604Z,1005.01
2018-08-13T07:20:22.535Z,1005.03
2018-08-13T07:22:15.514Z,1005.04
2018-08-13T07:23:15.403Z,1005.00
2018-08-13T07:25:08.153Z,1005.01
2018-08-13T07:26:08.101Z,1004.94
2018-08-13T07:28:00.966Z,1004.89
2018-08-13T07:29:00.876Z,1004.93
2018-08-13T07:30:53.706Z,1004.89
2018-08-13T07:31:53.661Z,1004.91
2018-08-13T07:33:46.544Z,1004.86
2018-08-13T07:34:46.410Z,1004.87
2018-08-13T07:36:39.226Z,1004.85
2018-08-13T07:37:39.186Z,1004.78
2018-08-13T07:39:32.049Z,1004.75
2018-08-13T07:40:31.935Z,1004.80
2018-08-13T07:42:24.742Z,1004.70
2018-08-13T07:43:24.676Z,1004.70
2018-08-13T07:45:17.471Z,1004.66
2018-08-13T07:46:17.427Z,1004.67
2018-08-13T07:48:10.265Z,1004.58
2018-08-13T07:49:10.207Z,1004.61
2018-08-13T07:51:03.001Z,1004.65
2018-08-13T07:52:02.958Z,1004.66
2018-08-13T07:53:55.842Z,1004.58
2018-08-13T07:54:55.722Z,1004.58
2018-08-13T07:56:48.538Z,1004.55
2018-08-13T07:57:48.492Z,1004.58
2018-08-13T07:59:41.294Z,1004.53
2018-08-13T08:00:41.233Z,1004.51
2018-08-13T08:02:34.103Z,1004.51
2018-08-13T08:03:34.041Z,1004.55
2018-08-13T08:05:26.878Z,1004.57
2018-08-13T08:06:26.818Z,1004.51
2018-08-13T08:08:19.692Z,1004.56
2018-08-13T08:09:19.752Z,1004.55
2018-08-13T08:11:12.455Z,1004.54
2018-08-13T08:12:12.397Z,1004.57
2018-08-13T08:14:05.230Z,1004.57
2018-08-13T08:15:05.167Z,1004.58
2018-08-13T08:16:58.003Z,1004.53
2018-08-13T08:17:57.933Z,1004.58
2018-08-13T08:19:50.762Z,1004.53
2018-08-13T08:20:50.708Z,1004.52
2018-08-13T08:22:43.517Z,1004.58
2018-08-13T08:23:43.447Z,1004.53
2018-08-13T08:25:36.253Z,1004.55
2018-08-13T08:26:36.192Z,1004.57
2018-08-13T08:28:29.016Z,1004.55
2018-08-13T08:29:29.026Z,1004.56
2018-08-13T08:31:21.773Z,1004.55
2018-08-13T08:32:21.723Z,1004.52
2018-08-13T08:34:14.563Z,1004.63
2018-08-13T08:35:14.502Z,1004.60
2018-08-13T08:37:07.337Z,1004.54
2018-08-13T08:38:07.259Z,1004.51
2018-08-13T08:40:00.065Z,1004.51
2018-08-13T08:41:00.094Z,1004.51
2018-08-13T08:42:52.828Z,1004.50
2018-08-13T08:43:52.763Z,1004.49
2018-08-13T08:45:45.572Z,1004.46
2018-08-13T08:46:45.525Z,1004.45
2018-08-13T08:48:38.361Z,1004.37
2018-08-13T08:49:38.298Z,1004.45
2018-08-13T08:51:31.139Z,1004.39
2018-08-13T08:52:31.099Z,1004.34
2018-08-13T08:54:23.888Z,1004.35
2018-08-13T08:55:23.846Z,1004.30
2018-08-13T08:57:16.646Z,1004.33
2018-08-13T08:58:16.594Z,1004.33
2018-08-13T09:00:09.417Z,1004.36
2018-08-13T09:01:09.356Z,1004.41
2018-08-13T09:03:02.234Z,1004.30
2018-08-13T09:04:02.122Z,1004.26
2018-08-13T09:05:54.962Z,1004.28
2018-08-13T09:06:54.877Z,1004.26
2018-08-13T09:08:47.695Z,1004.26
2018-08-13T09:09:47.667Z,1004.23
2018-08-13T09:11:40.429Z,1004.28
2018-08-13T09:12:40.384Z,1004.28
2018-08-13T09:14:33.209Z,1004.32
2018-08-13T09:15:33.139Z,1004.38
2018-08-13T09:17:25.948Z,1004.20
2018-08-13T09:18:25.880Z,1004.22
2018-08-13T09:20:18.722Z,1004.16
2018-08-13T09:21:18.628Z,1004.20
2018-08-13T09:23:11.437Z,1004.14
2018-08-13T09:24:11.376Z,1004.13
2018-08-13T09:26:04.721Z,1004.14
2018-08-13T09:27:04.670Z,1004.12
2018-08-13T09:28:57.497Z,1004.11
2018-08-13T09:29:57.483Z,1004.13
2018-08-13T09:31:50.233Z,1004.09
2018-08-13T09:32:50.192Z,1004.11
2018-08-13T09:34:43.318Z,1004.10
2018-08-13T09:35:43.247Z,1004.10
2018-08-13T09:37:36.058Z,1004.06
2018-08-13T09:38:36.004Z,1004.05
2018-08-13T09:40:28.824Z,1004.04
2018-08-13T09:41:28.776Z,1004.05
2018-08-13T09:43:21.594Z,1004.02
2018-08-13T09:44:21.526Z,1004.04
2018-08-13T09:46:14.360Z,1004.01
2018-08-13T09:47:14.273Z,1004.02
2018-08-13T09:49:07.133Z,1004.01
2018-08-13T09:50:07.115Z,1004.04
2018-08-13T09:51:59.849Z,1004.03
2018-08-13T09:52:59.796Z,1004.00
2018-08-13T09:54:52.640Z,1003.98
2018-08-13T09:55:52.572Z,1004.02
2018-08-13T09:57:45.395Z,1003.96
2018-08-13T09:58:45.347Z,1003.90
2018-08-13T10:00:38.194Z,1003.83
2018-08-13T10:01:38.107Z,1003.81
2018-08-13T10:03:30.919Z,1003.90
2018-08-13T10:04:30.892Z,1003.89
2018-08-13T10:06:24.119Z,1004.03
2018-08-13T10:07:23.683Z,1003.95
2018-08-13T10:09:16.506Z,1003.85
2018-08-13T10:10:16.419Z,1003.75
2018-08-13T10:12:09.274Z,1003.80
2018-08-13T10:13:09.206Z,1003.81
2018-08-13T10:15:02.008Z,1003.84
2018-08-13T10:16:01.942Z,1003.80
2018-08-13T10:17:54.821Z,1003.77
2018-08-13T10:18:54.719Z,1003.78
2018-08-13T10:20:47.587Z,1003.77
2018-08-13T10:21:47.495Z,1003.75
2018-08-13T10:23:40.316Z,1003.73
2018-08-13T10:24:40.241Z,1003.72
2018-08-13T10:26:33.064Z,1003.71
2018-08-13T10:27:32.993Z,1003.72
2018-08-13T10:29:25.793Z,1003.61
2018-08-13T10:30:25.733Z,1003.63
2018-08-13T10:32:18.577Z,1003.62
2018-08-13T10:33:18.515Z,1003.59
2018-08-13T10:35:11.408Z,1003.54
2018-08-13T10:36:11.302Z,1003.57
2018-08-13T10:38:04.226Z,1003.53
2018-08-13T10:39:04.160Z,1003.54
2018-08-13T10:40:57.041Z,1003.51
2018-08-13T10:41:56.998Z,1003.52
2018-08-13T10:43:49.856Z,1003.49
2018-08-13T10:44:49.820Z,1003.49
2018-08-13T10:46:43.896Z,1003.56
2018-08-13T10:47:43.636Z,1003.62
2018-08-13T10:49:36.460Z,1003.47
2018-08-13T10:50:36.480Z,1003.55
2018-08-13T10:52:29.311Z,1003.39
2018-08-13T10:53:29.254Z,1003.34
2018-08-13T10:55:22.366Z,1003.30
2018-08-13T10:56:22.291Z,1003.29
2018-08-13T10:58:15.242Z,1003.34
2018-08-13T10:59:15.205Z,1003.35
2018-08-13T11:01:08.115Z,1003.35
2018-08-13T11:02:07.979Z,1003.32
2018-08-13T11:04:00.875Z,1003.21
2018-08-13T11:05:00.902Z,1003.19
2018-08-13T11:06:53.928Z,1003.21
2018-08-13T11:07:53.811Z,1003.23
2018-08-13T11:09:46.629Z,1003.21
2018-08-13T11:10:46.565Z,1003.21
2018-08-13T11:12:39.412Z,1003.12
2018-08-13T11:13:39.328Z,1003.21
2018-08-13T11:15:32.212Z,1003.19
2018-08-13T11:16:32.136Z,1003.20
2018-08-13T11:18:24.971Z,1003.21
2018-08-13T11:19:24.908Z,1003.18
2018-08-13T11:21:17.808Z,1003.15
2018-08-13T11:22:17.767Z,1003.14
2018-08-13T11:24:10.584Z,1003.11
2018-08-13T11:25:10.569Z,1003.11
2018-08-13T11:27:03.340Z,1003.15
2018-08-13T11:28:03.274Z,1003.14
2018-08-13T11:29:56.417Z,1003.13
2018-08-13T11:30:56.206Z,1003.18
2018-08-13T11:32:49.261Z,1003.15
2018-08-13T11:33:49.175Z,1003.12
2018-08-13T11:35:42.082Z,1003.14
2018-08-13T11:36:42.019Z,1003.17
2018-08-13T11:38:34.905Z,1003.18
2018-08-13T11:39:34.843Z,1003.19
2018-08-13T11:41:27.950Z,1003.15
2018-08-13T11:42:27.624Z,1003.11
2018-08-13T11:44:20.574Z,1003.01
2018-08-13T11:45:20.451Z,1003.04
2018-08-13T11:47:13.307Z,1003.01
2018-08-13T11:48:13.235Z,1003.02
2018-08-13T11:50:06.064Z,1002.91
2018-08-13T11:51:06.055Z,1002.95
2018-08-13T11:52:58.950Z,1002.92
2018-08-13T11:53:58.906Z,1002.99
2018-08-13T11:55:51.765Z,1002.99
2018-08-13T11:56:51.692Z,1002.89
2018-08-13T11:58:44.537Z,1002.94
2018-08-13T11:59:44.508Z,1002.94
2018-08-13T12:01:37.371Z,1002.94
2018-08-13T12:02:37.257Z,1002.92
2018-08-13T12:04:30.171Z,1002.91
2018-08-13T12:05:30.100Z,1002.94
2018-08-13T12:07:22.964Z,1002.88
2018-08-13T12:08:22.926Z,1002.88
2018-08-13T12:10:15.713Z,1002.80
2018-08-13T12:11:15.698Z,1002.79
2018-08-13T12:13:08.410Z,1002.76
2018-08-13T12:14:08.466Z,1002.76
2018-08-13T12:16:01.238Z,1002.80
2018-08-13T12:17:01.081Z,1002.80
2018-08-13T12:18:53.959Z,1002.82
2018-08-13T12:19:53.924Z,1002.82
2018-08-13T12:21:46.768Z,1002.79
2018-08-13T12:22:46.719Z,1002.78
2018-08-13T12:24:39.464Z,1002.79
2018-08-13T12:25:39.367Z,1002.76
2018-08-13T12:27:32.212Z,1002.71
2018-08-13T12:28:32.121Z,1002.73
2018-08-13T12:30:24.974Z,1002.73
2018-08-13T12:31:24.923Z,1002.70
2018-08-13T12:33:17.738Z,1002.75
2018-08-13T12:34:17.671Z,1002.71
2018-08-13T12:36:10.481Z,1002.67
2018-08-13T12:37:10.433Z,1002.68
2018-08-13T12:39:03.242Z,1002.61
2018-08-13T12:40:03.161Z,1002.61
2018-08-13T12:41:55.975Z,1002.59
2018-08-13T12:42:55.911Z,1002.57
2018-08-13T12:44:48.703Z,1002.56
2018-08-13T12:45:48.650Z,1002.55
2018-08-13T12:47:41.623Z,1002.51
2018-08-13T12:48:41.420Z,1002.48
2018-08-13T12:50:34.245Z,1002.46
2018-08-13T12:51:34.185Z,1002.48
2018-08-13T12:53:27.002Z,1002.50
2018-08-13T12:54:26.938Z,1002.49
2018-08-13T12:56:19.787Z,1002.47
2018-08-13T12:57:19.761Z,1002.47
2018-08-13T12:59:12.591Z,1002.37
2018-08-13T13:00:12.582Z,1002.41
2018-08-13T13:02:05.340Z,1002.35
2018-08-13T13:03:05.280Z,1002.35
2018-08-13T13:04:58.214Z,1002.32
2018-08-13T13:05:58.175Z,1002.37
2018-08-13T13:07:50.970Z,1002.40
2018-08-13T13:08:50.912Z,1002.34
2018-08-13T13:10:43.748Z,1002.43
2018-08-13T13:11:43.627Z,1002.40
2018-08-13T13:13:36.569Z,1002.46
2018-08-13T13:14:36.455Z,1002.43
2018-08-13T13:16:29.256Z,1002.45
2018-08-13T13:17:29.150Z,1002.39
2018-08-13T13:19:22.077Z,1002.41
2018-08-13T13:20:21.976Z,1002.40
2018-08-13T13:22:14.813Z,1002.40
2018-08-13T13:23:14.739Z,1002.38
2018-08-13T13:25:07.554Z,1002.38
2018-08-13T13:26:07.497Z,1002.34
2018-08-13T13:28:00.295Z,1002.32
2018-08-13T13:29:00.235Z,1002.33
2018-08-13T13:30:53.012Z,1002.35
2018-08-13T13:31:52.957Z,1002.30
2018-08-13T13:33:45.776Z,1002.32
2018-08-13T13:34:45.849Z,1002.35
2018-08-13T13:36:38.565Z,1002.30
2018-08-13T13:37:38.514Z,1002.28
2018-08-13T13:39:31.338Z,1002.31
2018-08-13T13:40:31.330Z,1002.30
2018-08-13T13:42:24.137Z,1002.26
2018-08-13T13:43:24.324Z,1002.29
2018-08-13T13:45:16.828Z,1002.26
2018-08-13T13:46:16.823Z,1002.28
2018-08-13T13:48:09.584Z,1002.27
2018-08-13T13:49:09.503Z,1002.32
2018-08-13T13:51:02.326Z,1002.25
2018-08-13T13:52:02.322Z,1002.26
2018-08-13T13:53:55.061Z,1002.25
2018-08-13T13:54:55.000Z,1002.20
2018-08-13T13:56:47.820Z,1002.25
2018-08-13T13:57:47.753Z,1002.18
2018-08-13T13:59:40.606Z,1002.27
2018-08-13T14:00:40.502Z,1002.21
2018-08-13T14:02:33.302Z,1002.25
2018-08-13T14:03:33.223Z,1002.27
2018-08-13T14:05:26.035Z,1002.30
2018-08-13T14:06:26.038Z,1002.27
2018-08-13T14:08:18.835Z,1002.23
2018-08-13T14:09:18.769Z,1002.24
2018-08-13T14:11:11.568Z,1002.19
2018-08-13T14:12:11.502Z,1002.18
2018-08-13T14:14:04.326Z,1002.18
2018-08-13T14:15:04.254Z,1002.21
2018-08-13T14:16:57.063Z,1002.24
2018-08-13T14:17:56.997Z,1002.27
2018-08-13T14:19:49.843Z,1002.32
2018-08-13T14:20:49.717Z,1002.31
2018-08-13T14:22:42.565Z,1002.32
2018-08-13T14:23:42.499Z,1002.32
2018-08-13T14:25:35.375Z,1002.28
2018-08-13T14:26:35.316Z,1002.34
2018-08-13T14:28:28.125Z,1002.32
2018-08-13T14:29:28.046Z,1002.30
2018-08-13T14:31:20.847Z,1002.31
2018-08-13T14:32:20.783Z,1002.34
2018-08-13T14:34:14.105Z,1002.35
2018-08-13T14:35:13.988Z,1002.40
2018-08-13T14:37:06.981Z,1002.38
2018-08-13T14:38:06.901Z,1002.38
2018-08-13T14:39:59.788Z,1002.36
2018-08-13T14:40:59.635Z,1002.35
2018-08-13T14:42:52.426Z,1002.42
2018-08-13T14:43:52.350Z,1002.37
2018-08-13T14:45:45.132Z,1002.33
2018-08-13T14:46:45.081Z,1002.34
2018-08-13T14:48:37.870Z,1002.43
2018-08-13T14:49:37.797Z,1002.48
2018-08-13T14:51:30.634Z,1002.60
2018-08-13T14:52:30.549Z,1002.63
2018-08-13T14:54:23.398Z,1002.64
2018-08-13T14:55:23.330Z,1002.58
2018-08-13T14:57:16.137Z,1002.57
2018-08-13T14:58:16.223Z,1002.58
2018-08-13T15:00:08.893Z,1002.58
2018-08-13T15:01:08.829Z,1002.57
2018-08-13T15:03:01.628Z,1002.56
2018-08-13T15:04:01.569Z,1002.58
2018-08-13T15:05:54.356Z,1002.64
2018-08-13T15:06:54.345Z,1002.64
2018-08-13T15:08:47.097Z,1002.59
2018-08-13T15:09:47.026Z,1002.57
2018-08-13T15:11:39.828Z,1002.62
2018-08-13T15:12:39.757Z,1002.63
2018-08-13T15:14:32.546Z,1002.68
2018-08-13T15:15:32.480Z,1002.72
2018-08-13T15:17:25.265Z,1002.71
2018-08-13T15:18:25.211Z,1002.77
2018-08-13T15:20:18.061Z,1002.77
2018-08-13T15:21:17.988Z,1002.81
2018-08-13T15:23:10.795Z,1002.86
2018-08-13T15:24:10.728Z,1002.90
2018-08-13T15:26:03.548Z,1002.88
2018-08-13T15:27:03.555Z,1002.92
2018-08-13T15:28:56.300Z,1003.01
2018-08-13T15:29:56.298Z,1002.98
2018-08-13T15:31:49.013Z,1003.04
2018-08-13T15:32:48.980Z,1003.06
2018-08-13T15:34:41.762Z,1003.08
2018-08-13T15:35:41.764Z,1003.08
2018-08-13T15:37:34.487Z,1003.11
2018-08-13T15:38:34.428Z,1003.17
2018-08-13T15:40:27.223Z,1003.12
2018-08-13T15:41:27.153Z,1003.10
2018-08-13T15:43:19.959Z,1003.14
2018-08-13T15:44:19.899Z,1003.09
2018-08-13T15:46:12.685Z,1003.07
2018-08-13T15:47:12.630Z,1003.09
2018-08-13T15:49:05.452Z,1003.09
2018-08-13T15:50:05.371Z,1003.05
2018-08-13T15:51:58.203Z,1003.11
2018-08-13T15:52:58.102Z,1003.06
2018-08-13T15:54:50.926Z,1003.17
2018-08-13T15:55:50.835Z,1003.20
2018-08-13T15:57:43.652Z,1003.17
2018-08-13T15:58:43.590Z,1003.24
2018-08-13T16:00:36.513Z,1003.32
2018-08-13T16:01:36.456Z,1003.29
2018-08-13T16:03:29.240Z,1003.38
2018-08-13T16:04:29.172Z,1003.36
2018-08-13T16:06:21.940Z,1003.35
2018-08-13T16:07:21.880Z,1003.26
2018-08-13T16:09:14.716Z,1003.22
2018-08-13T16:10:14.647Z,1003.13
2018-08-13T16:12:07.458Z,1003.07
2018-08-13T16:13:07.410Z,1003.07
2018-08-13T16:15:00.188Z,1003.12
2018-08-13T16:16:00.129Z,1003.10
2018-08-13T16:17:52.918Z,1003.06
2018-08-13T16:18:52.866Z,1003.02
2018-08-13T16:20:45.694Z,1003.05
2018-08-13T16:21:45.597Z,1003.03
2018-08-13T16:23:38.509Z,1003.00
2018-08-13T16:24:38.364Z,1003.02
2018-08-13T16:26:31.145Z,1003.01
2018-08-13T16:27:31.075Z,1002.95
2018-08-13T16:29:24.453Z,1002.97
2018-08-13T16:30:23.808Z,1003.00
2018-08-13T16:32:16.585Z,1003.08
2018-08-13T16:33:16.525Z,1003.10
2018-08-13T16:35:09.320Z,1003.14
2018-08-13T16:36:09.253Z,1003.20
2018-08-13T16:38:02.138Z,1003.24
2018-08-13T16:39:02.099Z,1003.23
2018-08-13T16:40:54.907Z,1003.24
2018-08-13T16:41:54.824Z,1003.23
2018-08-13T16:43:47.671Z,1003.23
2018-08-13T16:44:47.586Z,1003.17
2018-08-13T16:46:40.412Z,1003.16
2018-08-13T16:47:40.357Z,1003.16
2018-08-13T16:49:33.215Z,1003.17
2018-08-13T16:53:18.267Z,1003.20
2018-08-13T16:54:18.193Z,1003.15
2018-08-13T16:56:11.060Z,1003.12
2018-08-13T16:57:10.976Z,1003.09
2018-08-13T16:59:03.727Z,1003.08
2018-08-13T17:00:03.653Z,1003.09
2018-08-13T17:01:56.490Z,1003.08
2018-08-13T17:02:56.908Z,1003.03
2018-08-13T17:04:49.280Z,1002.99
2018-08-13T17:05:49.192Z,1002.96
2018-08-13T17:07:42.167Z,1002.94
2018-08-13T17:08:42.113Z,1002.94
2018-08-13T17:10:34.904Z,1002.98
2018-08-13T17:11:34.836Z,1002.93
2018-08-13T17:13:27.677Z,1002.88
2018-08-13T17:14:27.815Z,1002.87
2018-08-13T17:16:20.412Z,1002.79
2018-08-13T17:17:20.311Z,1002.81
2018-08-13T17:19:13.225Z,1002.78
2018-08-13T17:20:13.045Z,1002.81
2018-08-13T17:22:06.092Z,1002.77
2018-08-13T17:23:05.979Z,1002.75
2018-08-13T17:24:58.848Z,1002.69
2018-08-13T17:25:58.717Z,1002.72
2018-08-13T17:27:51.555Z,1002.63